sensor_id;sensor_type;location;lat;lon;timestamp;pressure;altitude;pressure_sealevel;temperature
58102;BMP280;52034;51.926;6.320;2023-07-28T00:01:00;100334.16;;;19.09
58102;BMP280;52034;51.926;6.320;2023-07-28T00:02:00;100334.16;;;19.09
58102;BMP280;52034;51.926;6.320;2023-07-28T00:03:00;100328.47;;;19.11
58102;BMP280;52034;51.926;6.320;2023-07-28T00:04:01;100330.63;;;19.10
58102;BMP280;52034;51.926;6.320;2023-07-28T00:05:04;100328.47;;;19.09
58102;BMP280;52034;51.926;6.320;2023-07-28T00:06:05;100329.19;;;19.09
58102;BMP280;52034;51.926;6.320;2023-07-28T00:07:05;100326.34;;;19.09
58102;BMP280;52034;51.926;6.320;2023-07-28T00:08:06;100328.47;;;19.11
58102;BMP280;52034;51.926;6.320;2023-07-28T00:09:06;100328.47;;;19.11
58102;BMP280;52034;51.926;6.320;2023-07-28T00:10:07;100329.91;;;19.12
58102;BMP280;52034;51.926;6.320;2023-07-28T00:11:11;100327.03;;;19.10
58102;BMP280;52034;51.926;6.320;2023-07-28T00:12:15;100326.34;;;19.09
58102;BMP280;52034;51.926;6.320;2023-07-28T00:13:15;100324.91;;;19.08
58102;BMP280;52034;51.926;6.320;2023-07-28T00:14:15;100327.75;;;19.08
58102;BMP280;52034;51.926;6.320;2023-07-28T00:15:16;100332.06;;;19.07
58102;BMP280;52034;51.926;6.320;2023-07-28T00:16:16;100336.31;;;19.10
58102;BMP280;52034;51.926;6.320;2023-07-28T00:17:16;100331.31;;;19.11
58102;BMP280;52034;51.926;6.320;2023-07-28T00:18:17;100334.16;;;19.11
58102;BMP280;52034;51.926;6.320;2023-07-28T00:19:19;100336.97;;;19.13
58102;BMP280;52034;51.926;6.320;2023-07-28T00:20:21;100336.97;;;19.15
58102;BMP280;52034;51.926;6.320;2023-07-28T00:21:21;100338.41;;;19.16
58102;BMP280;52034;51.926;6.320;2023-07-28T00:22:21;100331.31;;;19.11
58102;BMP280;52034;51.926;6.320;2023-07-28T00:23:22;100326.34;;;19.11
58102;BMP280;52034;51.926;6.320;2023-07-28T00:24:22;100327.75;;;19.10
58102;BMP280;52034;51.926;6.320;2023-07-28T00:25:23;100326.34;;;19.09
58102;BMP280;52034;51.926;6.320;2023-07-28T00:26:23;100333.44;;;19.08
58102;BMP280;52034;51.926;6.320;2023-07-28T00:27:24;100340.56;;;19.11
58102;BMP280;52034;51.926;6.320;2023-07-28T00:28:24;100335.59;;;19.10
58102;BMP280;52034;51.926;6.320;2023-07-28T00:29:25;100338.41;;;19.14
58102;BMP280;52034;51.926;6.320;2023-07-28T00:30:25;100343.38;;;19.15
58102;BMP280;52034;51.926;6.320;2023-07-28T00:31:26;100334.13;;;19.13
58102;BMP280;52034;51.926;6.320;2023-07-28T00:32:27;100335.59;;;19.12
58102;BMP280;52034;51.926;6.320;2023-07-28T00:33:27;100345.53;;;19.11
58102;BMP280;52034;51.926;6.320;2023-07-28T00:34:27;100340.53;;;19.13
58102;BMP280;52034;51.926;6.320;2023-07-28T00:35:30;100345.50;;;19.13
58102;BMP280;52034;51.926;6.320;2023-07-28T00:36:32;100335.59;;;19.12
58102;BMP280;52034;51.926;6.320;2023-07-28T00:37:32;100339.13;;;19.12
58102;BMP280;52034;51.926;6.320;2023-07-28T00:38:33;100333.44;;;19.12
58102;BMP280;52034;51.926;6.320;2023-07-28T00:39:34;100344.09;;;19.14
58102;BMP280;52034;51.926;6.320;2023-07-28T00:40:37;100336.97;;;19.13
58102;BMP280;52034;51.926;6.320;2023-07-28T00:41:37;100339.81;;;19.13
58102;BMP280;52034;51.926;6.320;2023-07-28T00:42:38;100345.50;;;19.13
58102;BMP280;52034;51.926;6.320;2023-07-28T00:43:39;100336.31;;;19.10
58102;BMP280;52034;51.926;6.320;2023-07-28T00:44:39;100346.25;;;19.13
58102;BMP280;52034;51.926;6.320;2023-07-28T00:45:40;100352.66;;;19.12
58102;BMP280;52034;51.926;6.320;2023-07-28T00:46:40;100339.81;;;19.13
58102;BMP280;52034;51.926;6.320;2023-07-28T00:47:41;100352.63;;;19.14
58102;BMP280;52034;51.926;6.320;2023-07-28T00:48:42;100350.50;;;19.12
58102;BMP280;52034;51.926;6.320;2023-07-28T00:49:43;100355.50;;;19.10
58102;BMP280;52034;51.926;6.320;2023-07-28T00:50:45;100344.81;;;19.12
58102;BMP280;52034;51.926;6.320;2023-07-28T00:51:46;100350.50;;;19.12
58102;BMP280;52034;51.926;6.320;2023-07-28T00:52:46;100344.81;;;19.12
58102;BMP280;52034;51.926;6.320;2023-07-28T00:53:47;100350.50;;;19.12
58102;BMP280;52034;51.926;6.320;2023-07-28T00:54:48;100342.00;;;19.10
58102;BMP280;52034;51.926;6.320;2023-07-28T00:55:49;100350.50;;;19.12
58102;BMP280;52034;51.926;6.320;2023-07-28T00:56:49;100351.22;;;19.11
58102;BMP280;52034;51.926;6.320;2023-07-28T00:57:50;100353.38;;;19.10
58102;BMP280;52034;51.926;6.320;2023-07-28T00:58:51;100351.25;;;19.07
58102;BMP280;52034;51.926;6.320;2023-07-28T00:59:52;100356.22;;;19.08
58102;BMP280;52034;51.926;6.320;2023-07-28T01:00:53;100349.81;;;19.10
58102;BMP280;52034;51.926;6.320;2023-07-28T01:01:53;100350.53;;;19.08
58102;BMP280;52034;51.926;6.320;2023-07-28T01:02:53;100354.09;;;19.09
58102;BMP280;52034;51.926;6.320;2023-07-28T01:03:54;100351.28;;;19.03
58102;BMP280;52034;51.926;6.320;2023-07-28T01:04:54;100346.31;;;19.01
58102;BMP280;52034;51.926;6.320;2023-07-28T01:07:10;100347.72;;;19.04
58102;BMP280;52034;51.926;6.320;2023-07-28T01:08:32;100350.56;;;19.04
58102;BMP280;52034;51.926;6.320;2023-07-28T01:09:42;100354.13;;;19.05
58102;BMP280;52034;51.926;6.320;2023-07-28T01:10:45;100344.88;;;19.02
58102;BMP280;52034;51.926;6.320;2023-07-28T01:11:55;100346.31;;;19.03
58102;BMP280;52034;51.926;6.320;2023-07-28T01:12:57;100352.69;;;19.04
58102;BMP280;52034;51.926;6.320;2023-07-28T01:13:57;100340.63;;;19.01
58102;BMP280;52034;51.926;6.320;2023-07-28T01:14:57;100342.75;;;19.03
58102;BMP280;52034;51.926;6.320;2023-07-28T01:15:58;100354.81;;;19.05
58102;BMP280;52034;51.926;6.320;2023-07-28T01:17:00;100346.31;;;19.03
58102;BMP280;52034;51.926;6.320;2023-07-28T01:18:01;100352.69;;;19.04
58102;BMP280;52034;51.926;6.320;2023-07-28T01:19:01;100350.56;;;19.04
58102;BMP280;52034;51.926;6.320;2023-07-28T01:20:02;100347.00;;;19.06
58102;BMP280;52034;51.926;6.320;2023-07-28T01:21:06;100346.28;;;19.05
58102;BMP280;52034;51.926;6.320;2023-07-28T01:22:39;100350.56;;;19.06
58102;BMP280;52034;51.926;6.320;2023-07-28T01:24:01;100344.16;;;19.06
58102;BMP280;52034;51.926;6.320;2023-07-28T01:25:14;100357.66;;;19.05
58102;BMP280;52034;51.926;6.320;2023-07-28T01:26:24;100344.16;;;19.06
58102;BMP280;52034;51.926;6.320;2023-07-28T01:27:25;100344.88;;;19.04
58102;BMP280;52034;51.926;6.320;2023-07-28T01:28:26;100343.47;;;19.01
58102;BMP280;52034;51.926;6.320;2023-07-28T01:29:27;100349.88;;;19.02
58102;BMP280;52034;51.926;6.320;2023-07-28T01:30:28;100353.44;;;19.00
58102;BMP280;52034;51.926;6.320;2023-07-28T01:31:29;100349.16;;;19.03
58102;BMP280;52034;51.926;6.320;2023-07-28T01:32:29;100353.41;;;19.06
58102;BMP280;52034;51.926;6.320;2023-07-28T01:33:30;100351.97;;;19.05
58102;BMP280;52034;51.926;6.320;2023-07-28T01:34:30;100347.72;;;19.04
58102;BMP280;52034;51.926;6.320;2023-07-28T01:35:30;100352.69;;;19.06
58102;BMP280;52034;51.926;6.320;2023-07-28T01:36:31;100343.44;;;19.07
58102;BMP280;52034;51.926;6.320;2023-07-28T01:37:31;100347.00;;;19.08
58102;BMP280;52034;51.926;6.320;2023-07-28T01:38:33;100349.84;;;19.08
58102;BMP280;52034;51.926;6.320;2023-07-28T01:39:33;100350.53;;;19.08
58102;BMP280;52034;51.926;6.320;2023-07-28T01:40:33;100353.38;;;19.08
58102;BMP280;52034;51.926;6.320;2023-07-28T01:41:34;100344.88;;;19.06
58102;BMP280;52034;51.926;6.320;2023-07-28T01:42:34;100349.13;;;19.05
58102;BMP280;52034;51.926;6.320;2023-07-28T01:43:35;100341.31;;;19.04
58102;BMP280;52034;51.926;6.320;2023-07-28T01:44:35;100339.19;;;19.04
58102;BMP280;52034;51.926;6.320;2023-07-28T01:45:35;100349.13;;;19.07
58102;BMP280;52034;51.926;6.320;2023-07-28T01:46:36;100345.56;;;19.07
58102;BMP280;52034;51.926;6.320;2023-07-28T01:47:36;100334.94;;;19.01
58102;BMP280;52034;51.926;6.320;2023-07-28T01:48:37;100344.16;;;19.06
58102;BMP280;52034;51.926;6.320;2023-07-28T01:49:37;100339.88;;;19.07
58102;BMP280;52034;51.926;6.320;2023-07-28T01:50:37;100342.03;;;19.06
58102;BMP280;52034;51.926;6.320;2023-07-28T01:51:38;100338.50;;;19.02
58102;BMP280;52034;51.926;6.320;2023-07-28T01:52:38;100344.88;;;19.04
58102;BMP280;52034;51.926;6.320;2023-07-28T01:53:39;100344.16;;;19.06
58102;BMP280;52034;51.926;6.320;2023-07-28T01:54:39;100349.16;;;19.03
58102;BMP280;52034;51.926;6.320;2023-07-28T01:55:39;100339.91;;;19.01
58102;BMP280;52034;51.926;6.320;2023-07-28T01:56:40;100339.22;;;18.98
58102;BMP280;52034;51.926;6.320;2023-07-28T01:57:50;100337.78;;;19.03
58102;BMP280;52034;51.926;6.320;2023-07-28T01:58:51;100345.59;;;19.01
58102;BMP280;52034;51.926;6.320;2023-07-28T01:59:52;100342.06;;;19.00
58102;BMP280;52034;51.926;6.320;2023-07-28T02:00:53;100343.47;;;19.03
58102;BMP280;52034;51.926;6.320;2023-07-28T02:01:53;100344.88;;;19.02
58102;BMP280;52034;51.926;6.320;2023-07-28T02:02:54;100343.47;;;19.03
58102;BMP280;52034;51.926;6.320;2023-07-28T02:03:54;100332.09;;;19.03
58102;BMP280;52034;51.926;6.320;2023-07-28T02:04:55;100332.09;;;19.01
58102;BMP280;52034;51.926;6.320;2023-07-28T02:05:55;100342.03;;;19.04
58102;BMP280;52034;51.926;6.320;2023-07-28T02:06:55;100341.31;;;19.08
58102;BMP280;52034;51.926;6.320;2023-07-28T02:07:56;100345.56;;;19.09
58102;BMP280;52034;51.926;6.320;2023-07-28T02:08:56;100346.97;;;19.10
58102;BMP280;52034;51.926;6.320;2023-07-28T02:09:57;100347.69;;;19.10
58102;BMP280;52034;51.926;6.320;2023-07-28T02:10:57;100349.09;;;19.11
58102;BMP280;52034;51.926;6.320;2023-07-28T02:11:57;100354.78;;;19.13
58102;BMP280;52034;51.926;6.320;2023-07-28T02:12:58;100358.31;;;19.14
58102;BMP280;52034;51.926;6.320;2023-07-28T02:13:58;100350.50;;;19.12
58102;BMP280;52034;51.926;6.320;2023-07-28T02:14:59;100347.66;;;19.12
58102;BMP280;52034;51.926;6.320;2023-07-28T02:15:59;100354.06;;;19.15
58102;BMP280;52034;51.926;6.320;2023-07-28T02:17:00;100351.94;;;19.13
58102;BMP280;52034;51.926;6.320;2023-07-28T02:18:00;100353.34;;;19.14
58102;BMP280;52034;51.926;6.320;2023-07-28T02:19:01;100354.06;;;19.15
58102;BMP280;52034;51.926;6.320;2023-07-28T02:20:01;100354.06;;;19.15
58102;BMP280;52034;51.926;6.320;2023-07-28T02:21:03;100350.50;;;19.14
58102;BMP280;52034;51.926;6.320;2023-07-28T02:22:04;100344.13;;;19.12
58102;BMP280;52034;51.926;6.320;2023-07-28T02:23:04;100355.47;;;19.14
58102;BMP280;52034;51.926;6.320;2023-07-28T02:24:05;100341.97;;;19.16
58102;BMP280;52034;51.926;6.320;2023-07-28T02:25:06;100345.50;;;19.19
58102;BMP280;52034;51.926;6.320;2023-07-28T02:26:06;100351.91;;;19.15
58102;BMP280;52034;51.926;6.320;2023-07-28T02:27:07;100356.16;;;19.18
58102;BMP280;52034;51.926;6.320;2023-07-28T02:28:10;100352.63;;;19.18
58102;BMP280;52034;51.926;6.320;2023-07-28T02:29:10;100349.75;;;19.18
58102;BMP280;52034;51.926;6.320;2023-07-28T02:30:10;100343.34;;;19.17
58102;BMP280;52034;51.926;6.320;2023-07-28T02:31:11;100353.34;;;19.16
58102;BMP280;52034;51.926;6.320;2023-07-28T02:32:11;100350.50;;;19.16
58102;BMP280;52034;51.926;6.320;2023-07-28T02:33:11;100356.19;;;19.16
58102;BMP280;52034;51.926;6.320;2023-07-28T02:34:12;100356.19;;;19.14
58102;BMP280;52034;51.926;6.320;2023-07-28T02:35:12;100347.66;;;19.14
58102;BMP280;52034;51.926;6.320;2023-07-28T02:36:12;100346.28;;;19.09
58102;BMP280;52034;51.926;6.320;2023-07-28T02:37:14;100356.91;;;19.13
58102;BMP280;52034;51.926;6.320;2023-07-28T02:38:15;100343.41;;;19.11
58102;BMP280;52034;51.926;6.320;2023-07-28T02:39:15;100355.50;;;19.12
58102;BMP280;52034;51.926;6.320;2023-07-28T02:40:16;100357.63;;;19.11
58102;BMP280;52034;51.926;6.320;2023-07-28T02:41:16;100356.19;;;19.12
58102;BMP280;52034;51.926;6.320;2023-07-28T02:42:17;100359.06;;;19.12
58102;BMP280;52034;51.926;6.320;2023-07-28T02:43:17;100352.66;;;19.12
58102;BMP280;52034;51.926;6.320;2023-07-28T02:44:17;100346.28;;;19.09
58102;BMP280;52034;51.926;6.320;2023-07-28T02:45:18;100355.50;;;19.10
58102;BMP280;52034;51.926;6.320;2023-07-28T02:46:18;100364.03;;;19.12
58102;BMP280;52034;51.926;6.320;2023-07-28T02:47:20;100361.91;;;19.10
58102;BMP280;52034;51.926;6.320;2023-07-28T02:48:21;100347.69;;;19.10
58102;BMP280;52034;51.926;6.320;2023-07-28T02:49:22;100354.06;;;19.11
58102;BMP280;52034;51.926;6.320;2023-07-28T02:50:23;100358.34;;;19.12
58102;BMP280;52034;51.926;6.320;2023-07-28T02:51:23;100358.34;;;19.10
58102;BMP280;52034;51.926;6.320;2023-07-28T02:52:23;100366.19;;;19.09
58102;BMP280;52034;51.926;6.320;2023-07-28T02:53:24;100358.34;;;19.10
58102;BMP280;52034;51.926;6.320;2023-07-28T02:54:24;100365.44;;;19.11
58102;BMP280;52034;51.926;6.320;2023-07-28T02:55:26;100363.34;;;19.09
58102;BMP280;52034;51.926;6.320;2023-07-28T02:56:26;100363.34;;;19.09
58102;BMP280;52034;51.926;6.320;2023-07-28T02:57:26;100354.09;;;19.07
58102;BMP280;52034;51.926;6.320;2023-07-28T02:58:27;100362.63;;;19.09
58102;BMP280;52034;51.926;6.320;2023-07-28T02:59:27;100369.03;;;19.09
58102;BMP280;52034;51.926;6.320;2023-07-28T03:00:28;100364.03;;;19.10
58102;BMP280;52034;51.926;6.320;2023-07-28T03:01:31;100369.03;;;19.11
58102;BMP280;52034;51.926;6.320;2023-07-28T03:02:35;100371.16;;;19.11
58102;BMP280;52034;51.926;6.320;2023-07-28T03:03:35;100367.59;;;19.10
58102;BMP280;52034;51.926;6.320;2023-07-28T03:04:36;100368.31;;;19.09
58102;BMP280;52034;51.926;6.320;2023-07-28T03:05:54;100366.16;;;19.11
58102;BMP280;52034;51.926;6.320;2023-07-28T03:06:58;100368.28;;;19.11
58102;BMP280;52034;51.926;6.320;2023-07-28T03:07:59;100374.00;;;19.09
58102;BMP280;52034;51.926;6.320;2023-07-28T03:08:59;100373.28;;;19.08
58102;BMP280;52034;51.926;6.320;2023-07-28T03:10:20;100371.19;;;19.07
58102;BMP280;52034;51.926;6.320;2023-07-28T03:11:20;100370.47;;;19.06
58102;BMP280;52034;51.926;6.320;2023-07-28T03:12:21;100370.44;;;19.10
58102;BMP280;52034;51.926;6.320;2023-07-28T03:13:22;100369.78;;;19.08
58102;BMP280;52034;51.926;6.320;2023-07-28T03:14:22;100373.28;;;19.08
58102;BMP280;52034;51.926;6.320;2023-07-28T03:15:23;100367.59;;;19.08
58102;BMP280;52034;51.926;6.320;2023-07-28T03:16:23;100368.31;;;19.09
58102;BMP280;52034;51.926;6.320;2023-07-28T03:17:23;100369.06;;;19.07
58102;BMP280;52034;51.926;6.320;2023-07-28T03:18:25;100366.22;;;19.07
58102;BMP280;52034;51.926;6.320;2023-07-28T03:19:25;100370.44;;;19.08
58102;BMP280;52034;51.926;6.320;2023-07-28T03:20:26;100377.56;;;19.09
58102;BMP280;52034;51.926;6.320;2023-07-28T03:21:29;100376.88;;;19.07
58102;BMP280;52034;51.926;6.320;2023-07-28T03:22:30;100374.03;;;19.07
58102;BMP280;52034;51.926;6.320;2023-07-28T03:23:30;100377.59;;;19.07
58102;BMP280;52034;51.926;6.320;2023-07-28T03:24:31;100373.28;;;19.08
58102;BMP280;52034;51.926;6.320;2023-07-28T03:25:31;100371.16;;;19.09
58102;BMP280;52034;51.926;6.320;2023-07-28T03:26:31;100383.25;;;19.09
58102;BMP280;52034;51.926;6.320;2023-07-28T03:27:32;100374.00;;;19.09
58102;BMP280;52034;51.926;6.320;2023-07-28T03:28:32;100381.81;;;19.12
58102;BMP280;52034;51.926;6.320;2023-07-28T03:29:33;100384.69;;;19.10
58102;BMP280;52034;51.926;6.320;2023-07-28T03:30:34;100381.13;;;19.10
58102;BMP280;52034;51.926;6.320;2023-07-28T03:31:34;100379.00;;;19.10
58102;BMP280;52034;51.926;6.320;2023-07-28T03:32:36;100380.41;;;19.11
58102;BMP280;52034;51.926;6.320;2023-07-28T03:33:37;100386.81;;;19.12
58102;BMP280;52034;51.926;6.320;2023-07-28T03:34:38;100391.06;;;19.11
58102;BMP280;52034;51.926;6.320;2023-07-28T03:35:44;100386.84;;;19.08
58102;BMP280;52034;51.926;6.320;2023-07-28T03:36:45;100384.66;;;19.12
58102;BMP280;52034;51.926;6.320;2023-07-28T03:37:46;100383.25;;;19.11
58102;BMP280;52034;51.926;6.320;2023-07-28T03:38:46;100383.22;;;19.15
58102;BMP280;52034;51.926;6.320;2023-07-28T03:39:47;100383.91;;;19.14
58102;BMP280;52034;51.926;6.320;2023-07-28T03:40:48;100383.25;;;19.11
58102;BMP280;52034;51.926;6.320;2023-07-28T03:41:49;100386.06;;;19.13
58102;BMP280;52034;51.926;6.320;2023-07-28T03:42:49;100387.50;;;19.12
58102;BMP280;52034;51.926;6.320;2023-07-28T03:43:49;100383.97;;;19.12
58102;BMP280;52034;51.926;6.320;2023-07-28T03:44:50;100381.13;;;19.12
58102;BMP280;52034;51.926;6.320;2023-07-28T03:45:51;100380.41;;;19.11
58102;BMP280;52034;51.926;6.320;2023-07-28T03:46:51;100379.66;;;19.13
58102;BMP280;52034;51.926;6.320;2023-07-28T03:47:52;100377.56;;;19.11
58102;BMP280;52034;51.926;6.320;2023-07-28T03:48:52;100388.22;;;19.11
58102;BMP280;52034;51.926;6.320;2023-07-28T03:49:52;100384.69;;;19.10
58102;BMP280;52034;51.926;6.320;2023-07-28T03:50:53;100381.13;;;19.10
58102;BMP280;52034;51.926;6.320;2023-07-28T03:51:53;100384.66;;;19.12
58102;BMP280;52034;51.926;6.320;2023-07-28T03:52:53;100387.50;;;19.12
58102;BMP280;52034;51.926;6.320;2023-07-28T03:53:54;100382.50;;;19.13
58102;BMP280;52034;51.926;6.320;2023-07-28T03:54:54;100386.78;;;19.14
58102;BMP280;52034;51.926;6.320;2023-07-28T03:55:54;100394.63;;;19.11
58102;BMP280;52034;51.926;6.320;2023-07-28T03:56:58;100386.84;;;19.08
58102;BMP280;52034;51.926;6.320;2023-07-28T03:57:58;100394.63;;;19.13
58102;BMP280;52034;51.926;6.320;2023-07-28T03:58:59;100397.44;;;19.15
58102;BMP280;52034;51.926;6.320;2023-07-28T03:59:59;100392.50;;;19.12
58102;BMP280;52034;51.926;6.320;2023-07-28T04:01:00;100383.97;;;19.12
58102;BMP280;52034;51.926;6.320;2023-07-28T04:02:00;100391.75;;;19.15
58102;BMP280;52034;51.926;6.320;2023-07-28T04:03:01;100396.03;;;19.16
58102;BMP280;52034;51.926;6.320;2023-07-28T04:04:01;100396.03;;;19.16
58102;BMP280;52034;51.926;6.320;2023-07-28T04:05:03;100388.22;;;19.15
58102;BMP280;52034;51.926;6.320;2023-07-28T04:06:11;100385.34;;;19.17
58102;BMP280;52034;51.926;6.320;2023-07-28T04:07:12;100386.03;;;19.17
58102;BMP280;52034;51.926;6.320;2023-07-28T04:08:12;100390.34;;;19.14
58102;BMP280;52034;51.926;6.320;2023-07-28T04:09:14;100395.31;;;19.16
58102;BMP280;52034;51.926;6.320;2023-07-28T04:10:15;100387.50;;;19.16
58102;BMP280;52034;51.926;6.320;2023-07-28T04:11:15;100394.56;;;19.17
58102;BMP280;52034;51.926;6.320;2023-07-28T04:12:16;100402.41;;;19.17
58102;BMP280;52034;51.926;6.320;2023-07-28T04:13:16;100388.91;;;19.15
58102;BMP280;52034;51.926;6.320;2023-07-28T04:14:16;100399.56;;;19.17
58102;BMP280;52034;51.926;6.320;2023-07-28T04:15:17;100397.41;;;19.17
58102;BMP280;52034;51.926;6.320;2023-07-28T04:16:17;100395.31;;;19.16
58102;BMP280;52034;51.926;6.320;2023-07-28T04:17:18;100391.06;;;19.15
58102;BMP280;52034;51.926;6.320;2023-07-28T04:18:18;100398.16;;;19.16
58102;BMP280;52034;51.926;6.320;2023-07-28T04:19:19;100393.88;;;19.13
58102;BMP280;52034;51.926;6.320;2023-07-28T04:20:19;100393.19;;;19.14
58102;BMP280;52034;51.926;6.320;2023-07-28T04:21:20;100398.91;;;19.10
58102;BMP280;52034;51.926;6.320;2023-07-28T04:22:20;100399.59;;;19.11
58102;BMP280;52034;51.926;6.320;2023-07-28T04:23:23;100404.56;;;19.12
58102;BMP280;52034;51.926;6.320;2023-07-28T04:24:23;100402.44;;;19.13
58102;BMP280;52034;51.926;6.320;2023-07-28T04:25:24;100396.75;;;19.11
58102;BMP280;52034;51.926;6.320;2023-07-28T04:26:25;100398.88;;;19.12
58102;BMP280;52034;51.926;6.320;2023-07-28T04:27:31;100401.00;;;19.14
58102;BMP280;52034;51.926;6.320;2023-07-28T04:28:35;100401.00;;;19.14
58102;BMP280;52034;51.926;6.320;2023-07-28T04:29:36;100397.47;;;19.13
58102;BMP280;52034;51.926;6.320;2023-07-28T04:30:39;100399.56;;;19.17
58102;BMP280;52034;51.926;6.320;2023-07-28T04:31:43;100394.59;;;19.15
58102;BMP280;52034;51.926;6.320;2023-07-28T04:32:46;100404.53;;;19.18
58102;BMP280;52034;51.926;6.320;2023-07-28T04:33:51;100401.72;;;19.16
58102;BMP280;52034;51.926;6.320;2023-07-28T04:34:52;100404.53;;;19.18
58102;BMP280;52034;51.926;6.320;2023-07-28T04:36:12;100404.53;;;19.18
58102;BMP280;52034;51.926;6.320;2023-07-28T04:37:13;100413.06;;;19.22
58102;BMP280;52034;51.926;6.320;2023-07-28T04:38:30;100410.22;;;19.20
58102;BMP280;52034;51.926;6.320;2023-07-28T04:39:32;100412.34;;;19.20
58102;BMP280;52034;51.926;6.320;2023-07-28T04:40:33;100418.78;;;19.20
58102;BMP280;52034;51.926;6.320;2023-07-28T04:41:33;100418.78;;;19.20
58102;BMP280;52034;51.926;6.320;2023-07-28T04:42:34;100411.63;;;19.23
58102;BMP280;52034;51.926;6.320;2023-07-28T04:43:34;100417.31;;;19.23
58102;BMP280;52034;51.926;6.320;2023-07-28T04:44:37;100426.53;;;19.26
58102;BMP280;52034;51.926;6.320;2023-07-28T04:45:40;100417.31;;;19.23
58102;BMP280;52034;51.926;6.320;2023-07-28T04:46:47;100420.16;;;19.23
58102;BMP280;52034;51.926;6.320;2023-07-28T04:47:48;100423.00;;;19.25
58102;BMP280;52034;51.926;6.320;2023-07-28T04:48:49;100413.75;;;19.25
58102;BMP280;52034;51.926;6.320;2023-07-28T04:50:08;100427.25;;;19.26
58102;BMP280;52034;51.926;6.320;2023-07-28T04:51:41;100425.84;;;19.25
58102;BMP280;52034;51.926;6.320;2023-07-28T04:52:56;100418.72;;;19.26
58102;BMP280;52034;51.926;6.320;2023-07-28T04:54:15;100420.16;;;19.23
58102;BMP280;52034;51.926;6.320;2023-07-28T04:55:15;100418.75;;;19.24
58102;BMP280;52034;51.926;6.320;2023-07-28T04:56:15;100422.25;;;19.27
58102;BMP280;52034;51.926;6.320;2023-07-28T04:57:16;100422.25;;;19.27
58102;BMP280;52034;51.926;6.320;2023-07-28T04:58:18;100432.22;;;19.30
58102;BMP280;52034;51.926;6.320;2023-07-28T04:59:22;100427.94;;;19.31
58102;BMP280;52034;51.926;6.320;2023-07-28T05:00:22;100432.22;;;19.30
58102;BMP280;52034;51.926;6.320;2023-07-28T05:01:23;100425.81;;;19.27
58102;BMP280;52034;51.926;6.320;2023-07-28T05:02:23;100428.00;;;19.25
58102;BMP280;52034;51.926;6.320;2023-07-28T05:03:23;100432.25;;;19.28
58102;BMP280;52034;51.926;6.320;2023-07-28T05:04:31;100424.41;;;19.28
58102;BMP280;52034;51.926;6.320;2023-07-28T05:05:32;100429.38;;;19.28
58102;BMP280;52034;51.926;6.320;2023-07-28T05:06:32;100424.41;;;19.28
58102;BMP280;52034;51.926;6.320;2023-07-28T05:07:32;100427.22;;;19.30
58102;BMP280;52034;51.926;6.320;2023-07-28T05:08:33;100429.38;;;19.30
58102;BMP280;52034;51.926;6.320;2023-07-28T05:09:34;100421.53;;;19.30
58102;BMP280;52034;51.926;6.320;2023-07-28T05:10:34;100420.09;;;19.31
58102;BMP280;52034;51.926;6.320;2023-07-28T05:11:34;100436.47;;;19.33
58102;BMP280;52034;51.926;6.320;2023-07-28T05:12:35;100424.34;;;19.34
58102;BMP280;52034;51.926;6.320;2023-07-28T05:13:35;100428.63;;;19.35
58102;BMP280;52034;51.926;6.320;2023-07-28T05:14:36;100425.06;;;19.35
58102;BMP280;52034;51.926;6.320;2023-07-28T05:15:36;100422.22;;;19.35
58102;BMP280;52034;51.926;6.320;2023-07-28T05:16:38;100424.38;;;19.32
58102;BMP280;52034;51.926;6.320;2023-07-28T05:17:45;100420.09;;;19.31
58102;BMP280;52034;51.926;6.320;2023-07-28T05:19:15;100426.50;;;19.32
58102;BMP280;52034;51.926;6.320;2023-07-28T05:20:17;100419.38;;;19.33
58102;BMP280;52034;51.926;6.320;2023-07-28T05:21:25;100420.81;;;19.32
58102;BMP280;52034;51.926;6.320;2023-07-28T05:22:26;100427.22;;;19.30
58102;BMP280;52034;51.926;6.320;2023-07-28T05:23:28;100425.81;;;19.33
58102;BMP280;52034;51.926;6.320;2023-07-28T05:24:28;100432.88;;;19.34
58102;BMP280;52034;51.926;6.320;2023-07-28T05:25:29;100434.31;;;19.35
58102;BMP280;52034;51.926;6.320;2023-07-28T05:26:29;100429.31;;;19.36
58102;BMP280;52034;51.926;6.320;2023-07-28T05:27:29;100426.47;;;19.36
58102;BMP280;52034;51.926;6.320;2023-07-28T05:28:34;100427.91;;;19.35
58102;BMP280;52034;51.926;6.320;2023-07-28T05:29:37;100427.19;;;19.34
58102;BMP280;52034;51.926;6.320;2023-07-28T05:30:39;100427.94;;;19.33
58102;BMP280;52034;51.926;6.320;2023-07-28T05:31:40;100427.19;;;19.34
58102;BMP280;52034;51.926;6.320;2023-07-28T05:32:49;100424.34;;;19.38
58102;BMP280;52034;51.926;6.320;2023-07-28T05:33:57;100425.03;;;19.41
58102;BMP280;52034;51.926;6.320;2023-07-28T05:34:58;100420.03;;;19.41
58102;BMP280;52034;51.926;6.320;2023-07-28T05:36:04;100427.19;;;19.38
58102;BMP280;52034;51.926;6.320;2023-07-28T05:37:05;100421.47;;;19.40
58102;BMP280;52034;51.926;6.320;2023-07-28T05:38:07;100425.03;;;19.41
58102;BMP280;52034;51.926;6.320;2023-07-28T05:39:08;100425.72;;;19.41
58102;BMP280;52034;51.926;6.320;2023-07-28T05:40:16;100433.56;;;19.43
58102;BMP280;52034;51.926;6.320;2023-07-28T05:41:16;100430.03;;;19.42
58102;BMP280;52034;51.926;6.320;2023-07-28T05:42:18;100432.13;;;19.44
58102;BMP280;52034;51.926;6.320;2023-07-28T05:43:21;100430.69;;;19.45
58102;BMP280;52034;51.926;6.320;2023-07-28T05:44:22;100430.72;;;19.47
58102;BMP280;52034;51.926;6.320;2023-07-28T05:45:22;100434.22;;;19.47
58102;BMP280;52034;51.926;6.320;2023-07-28T05:46:23;100436.41;;;19.47
58102;BMP280;52034;51.926;6.320;2023-07-28T05:47:23;100440.63;;;19.50
58102;BMP280;52034;51.926;6.320;2023-07-28T05:48:24;100436.34;;;19.49
58102;BMP280;52034;51.926;6.320;2023-07-28T05:49:24;100444.19;;;19.48
58102;BMP280;52034;51.926;6.320;2023-07-28T05:50:24;100437.81;;;19.46
58102;BMP280;52034;51.926;6.320;2023-07-28T05:51:25;100443.50;;;19.46
58102;BMP280;52034;51.926;6.320;2023-07-28T05:52:25;100445.59;;;19.47
58102;BMP280;52034;51.926;6.320;2023-07-28T05:53:26;100446.31;;;19.48